Time;durP1;ratioP1;P1;durP2;ratioP2;P2;SDS_P1;SDS_P2;PMS_P1;PMS_P2;Temp;Humidity;BMP_temperature;BMP_pressure;BME280_temperature;BME280_humidity;BME280_pressure;Samples;Min_cycle;Max_cycle;Signal;HPM_P1;HPM_P2
2022/04/15 00:01:15;;;;;;;;;6.00;6.00;;;;;;;;5031307;28;45638;-62
2022/04/15 00:03:40;;;;;;;;;8.00;7.00;;;;;;;;5028699;28;46677;-62
2022/04/15 00:06:08;;;;;;;;;7.50;7.00;;;;;;;;5030510;28;45683;-60
2022/04/15 00:08:34;;;;;;;;;9.00;9.00;;;;;;;;5033192;28;45450;-62
2022/04/15 00:10:59;;;;;;;;;8.00;8.00;;;;;;;;5032674;28;45359;-62
2022/04/15 00:13:26;;;;;;;;;8.00;8.00;;;;;;;;5036247;28;46998;-60
2022/04/15 00:15:51;;;;;;;;;9.00;8.50;;;;;;;;5034041;28;45456;-60
2022/04/15 00:18:16;;;;;;;;;9.75;9.75;;;;;;;;5033951;28;45570;-61
2022/04/15 00:20:42;;;;;;;;;11.25;9.50;;;;;;;;5032302;28;45555;-62
2022/04/15 00:23:07;;;;;;;;;10.25;10.25;;;;;;;;5034162;28;46308;-60
2022/04/15 00:25:32;;;;;;;;;10.25;9.00;;;;;;;;5034845;28;45403;-61
2022/04/15 00:27:57;;;;;;;;;10.50;10.50;;;;;;;;5031673;28;45597;-62
2022/04/15 00:30:23;;;;;;;;;11.25;11.25;;;;;;;;5032494;28;45639;-61
2022/04/15 00:32:48;;;;;;;;;11.50;10.50;;;;;;;;5033708;28;45517;-61
2022/04/15 00:35:14;;;;;;;;;11.75;9.50;;;;;;;;5033321;28;45387;-61
2022/04/15 00:37:39;;;;;;;;;12.50;10.25;;;;;;;;5035944;28;45708;-61
2022/04/15 00:40:06;;;;;;;;;11.25;9.00;;;;;;;;5030338;28;45371;-61
2022/04/15 00:42:31;;;;;;;;;12.50;11.50;;;;;;;;5029070;28;46413;-61
2022/04/15 00:44:57;;;;;;;;;8.50;8.50;;;;;;;;5032229;28;45894;-61
2022/04/15 00:47:41;;;;;;;;;9.25;9.25;;;;;;;;5031127;28;45552;-61
2022/04/15 00:50:06;;;;;;;;;6.50;5.00;;;;;;;;5031610;28;45557;-61
2022/04/15 00:52:34;;;;;;;;;12.25;10.00;;;;;;;;5030984;28;45794;-61
2022/04/15 00:55:02;;;;;;;;;10.25;10.00;;;;;;;;5032874;28;46074;-61
2022/04/15 00:57:28;;;;;;;;;12.00;9.50;;;;;;;;5033040;28;45469;-61
2022/04/15 00:59:54;;;;;;;;;10.00;10.00;;;;;;;;5032149;28;45437;-61
2022/04/15 01:02:20;;;;;;;;;11.25;9.25;;;;;;;;5033508;28;45653;-61
2022/04/15 01:04:45;;;;;;;;;13.25;12.25;;;;;;;;5033162;28;45555;-61
2022/04/15 01:07:12;;;;;;;;;11.75;11.75;;;;;;;;5034243;28;45405;-61
2022/04/15 01:09:42;;;;;;;;;10.25;10.25;;;;;;;;5028815;28;45815;-61
2022/04/15 01:12:09;;;;;;;;;13.25;11.50;;;;;;;;5021941;28;46035;-61
2022/04/15 01:14:35;;;;;;;;;12.25;12.25;;;;;;;;5031905;28;45463;-61
2022/04/15 01:17:01;;;;;;;;;11.50;11.50;;;;;;;;5031513;28;45546;-61
2022/04/15 01:19:26;;;;;;;;;14.75;12.00;;;;;;;;5034891;28;45709;-62
2022/04/15 01:21:54;;;;;;;;;9.50;9.00;;;;;;;;5032921;28;46526;-61
2022/04/15 01:24:19;;;;;;;;;12.00;12.00;;;;;;;;5031878;28;45711;-61
2022/04/15 01:26:45;;;;;;;;;12.25;12.25;;;;;;;;5030866;28;45702;-62
2022/04/15 01:29:10;;;;;;;;;13.50;11.75;;;;;;;;5015532;28;45747;-62
2022/04/15 01:31:35;;;;;;;;;11.00;11.00;;;;;;;;5023619;28;47398;-62
2022/04/15 01:34:01;;;;;;;;;12.00;11.00;;;;;;;;5016156;28;45451;-61
2022/04/15 01:36:26;;;;;;;;;12.25;12.25;;;;;;;;5026660;28;45591;-63
2022/04/15 01:38:54;;;;;;;;;13.00;11.00;;;;;;;;5018342;28;45704;-61
2022/04/15 01:41:19;;;;;;;;;11.75;10.75;;;;;;;;5022242;28;45930;-61
2022/04/15 01:43:44;;;;;;;;;11.25;11.25;;;;;;;;5023385;28;46032;-61
2022/04/15 01:46:10;;;;;;;;;14.00;13.75;;;;;;;;5013838;28;45746;-62
2022/04/15 01:48:35;;;;;;;;;13.25;12.25;;;;;;;;5029401;28;45620;-61
2022/04/15 01:51:00;;;;;;;;;14.00;13.00;;;;;;;;5013977;28;46530;-61
2022/04/15 01:53:25;;;;;;;;;16.75;13.50;;;;;;;;5016337;28;45760;-61
2022/04/15 01:55:51;;;;;;;;;14.50;14.50;;;;;;;;5015640;28;46985;-61
2022/04/15 01:58:16;;;;;;;;;17.00;16.50;;;;;;;;5015620;28;46203;-62
2022/04/15 02:00:41;;;;;;;;;15.75;13.50;;;;;;;;5016286;28;45714;-62
2022/04/15 02:03:07;;;;;;;;;16.00;14.00;;;;;;;;5015426;28;45630;-61
2022/04/15 02:05:32;;;;;;;;;15.75;14.75;;;;;;;;5023913;28;45607;-61
2022/04/15 02:07:57;;;;;;;;;15.00;15.00;;;;;;;;5023289;28;45468;-61
2022/04/15 02:10:22;;;;;;;;;12.50;11.50;;;;;;;;5018219;28;46411;-60
2022/04/15 02:12:48;;;;;;;;;14.25;14.25;;;;;;;;5023054;28;45518;-61
2022/04/15 02:15:13;;;;;;;;;16.25;15.25;;;;;;;;5015579;28;45775;-62
2022/04/15 02:17:38;;;;;;;;;18.50;17.25;;;;;;;;5015667;28;45520;-61
2022/04/15 02:20:04;;;;;;;;;13.75;13.50;;;;;;;;5017734;28;46164;-60
2022/04/15 02:22:29;;;;;;;;;14.25;14.25;;;;;;;;5030977;28;45572;-61
2022/04/15 02:24:54;;;;;;;;;15.75;12.75;;;;;;;;5018791;28;45353;-61
2022/04/15 02:27:20;;;;;;;;;15.25;14.75;;;;;;;;5015279;28;45373;-61
2022/04/15 02:29:45;;;;;;;;;14.75;14.75;;;;;;;;5012561;28;46566;-61
2022/04/15 02:32:10;;;;;;;;;12.25;12.25;;;;;;;;5020131;28;45516;-61
2022/04/15 02:34:36;;;;;;;;;17.75;17.75;;;;;;;;5024901;28;45656;-60
2022/04/15 02:37:01;;;;;;;;;15.25;14.25;;;;;;;;5016923;28;45614;-61
2022/04/15 02:39:26;;;;;;;;;12.75;12.75;;;;;;;;5022869;28;45732;-63
2022/04/15 02:41:52;;;;;;;;;13.50;13.50;;;;;;;;5018604;28;45521;-63
2022/04/15 02:44:17;;;;;;;;;13.25;13.25;;;;;;;;5024540;28;45694;-62
2022/04/15 02:46:43;;;;;;;;;14.25;14.25;;;;;;;;5013964;28;45326;-63
2022/04/15 02:49:08;;;;;;;;;19.50;17.25;;;;;;;;5014348;28;45926;-63
2022/04/15 02:51:33;;;;;;;;;17.75;16.50;;;;;;;;5015407;28;45543;-62
2022/04/15 02:53:58;;;;;;;;;15.50;14.50;;;;;;;;5022476;28;45679;-63
2022/04/15 02:56:24;;;;;;;;;15.00;15.00;;;;;;;;5017094;28;45435;-63
2022/04/15 02:58:49;;;;;;;;;12.50;12.50;;;;;;;;5030146;28;46854;-62
2022/04/15 03:01:14;;;;;;;;;18.50;16.50;;;;;;;;5015262;28;45345;-63
2022/04/15 03:03:39;;;;;;;;;17.25;16.25;;;;;;;;5015352;28;45330;-63
2022/04/15 03:06:04;;;;;;;;;12.50;12.50;;;;;;;;5014017;28;45336;-61
2022/04/15 03:08:30;;;;;;;;;15.00;15.00;;;;;;;;5014160;28;45853;-62
2022/04/15 03:10:55;;;;;;;;;16.75;16.50;;;;;;;;5015171;28;45831;-62
2022/04/15 03:13:20;;;;;;;;;15.25;14.75;;;;;;;;5016715;28;46404;-62
2022/04/15 03:15:46;;;;;;;;;21.25;19.00;;;;;;;;5017612;28;45888;-63
2022/04/15 03:18:11;;;;;;;;;19.50;15.50;;;;;;;;5023578;28;46526;-63
2022/04/15 03:20:36;;;;;;;;;13.00;13.00;;;;;;;;5023067;28;45558;-63
2022/04/15 03:23:01;;;;;;;;;13.25;13.25;;;;;;;;5013623;28;45822;-62
2022/04/15 03:25:27;;;;;;;;;12.25;12.25;;;;;;;;5040482;28;45704;-62
2022/04/15 03:27:53;;;;;;;;;8.50;8.50;;;;;;;;5028745;28;46276;-61
2022/04/15 03:30:18;;;;;;;;;14.50;14.25;;;;;;;;5028745;28;45778;-62
2022/04/15 03:32:44;;;;;;;;;13.50;13.50;;;;;;;;5027956;28;45665;-62
2022/04/15 03:35:09;;;;;;;;;14.00;14.00;;;;;;;;5026007;28;45458;-62
2022/04/15 03:37:34;;;;;;;;;10.25;10.25;;;;;;;;5026499;28;46284;-62
2022/04/15 03:39:59;;;;;;;;;13.75;12.75;;;;;;;;5028765;28;45654;-62
2022/04/15 03:42:24;;;;;;;;;13.50;13.50;;;;;;;;5014379;28;46146;-62
2022/04/15 03:44:50;;;;;;;;;15.00;14.75;;;;;;;;5017090;28;45402;-61
2022/04/15 03:47:16;;;;;;;;;15.00;12.50;;;;;;;;5017868;28;45741;-61
2022/04/15 03:49:41;;;;;;;;;17.50;14.75;;;;;;;;5033517;28;46121;-62
2022/04/15 03:52:07;;;;;;;;;13.50;13.50;;;;;;;;5017276;28;45445;-61
2022/04/15 03:54:32;;;;;;;;;18.25;16.00;;;;;;;;5014584;28;45431;-62
2022/04/15 03:56:57;;;;;;;;;15.25;15.25;;;;;;;;5017227;28;46589;-61
2022/04/15 03:59:22;;;;;;;;;19.75;12.75;;;;;;;;5018148;28;45517;-61
2022/04/15 04:01:47;;;;;;;;;16.00;15.00;;;;;;;;5022560;28;45667;-61
2022/04/15 04:04:13;;;;;;;;;14.50;14.00;;;;;;;;5029075;28;46099;-61
2022/04/15 04:06:39;;;;;;;;;13.75;13.00;;;;;;;;5030486;28;46732;-62
2022/04/15 04:09:04;;;;;;;;;16.50;14.00;;;;;;;;5032637;28;45430;-62
2022/04/15 04:11:29;;;;;;;;;12.25;12.25;;;;;;;;5030635;28;45336;-60
2022/04/15 04:13:54;;;;;;;;;15.00;13.75;;;;;;;;5030572;28;45451;-61
2022/04/15 04:16:20;;;;;;;;;19.50;14.75;;;;;;;;5030178;28;45553;-61
2022/04/15 04:18:45;;;;;;;;;15.50;14.75;;;;;;;;5030571;28;45493;-61
2022/04/15 04:21:11;;;;;;;;;15.75;14.75;;;;;;;;5032516;28;45937;-61
2022/04/15 04:23:37;;;;;;;;;12.75;12.75;;;;;;;;5029897;28;45388;-61
2022/04/15 04:26:02;;;;;;;;;14.00;14.00;;;;;;;;5025454;28;48241;-61
2022/04/15 04:28:28;;;;;;;;;16.00;13.50;;;;;;;;5019906;28;45736;-61
2022/04/15 04:30:53;;;;;;;;;13.00;13.00;;;;;;;;5030436;28;45491;-61
2022/04/15 04:33:19;;;;;;;;;16.25;12.50;;;;;;;;5031825;28;45408;-61
2022/04/15 04:35:44;;;;;;;;;11.75;11.75;;;;;;;;5030556;28;46248;-61
2022/04/15 04:38:09;;;;;;;;;11.00;11.00;;;;;;;;5028508;28;45515;-61
2022/04/15 04:40:35;;;;;;;;;18.25;16.75;;;;;;;;5031165;28;45487;-60
2022/04/15 04:43:00;;;;;;;;;13.50;13.00;;;;;;;;5030862;28;45414;-61
2022/04/15 04:45:26;;;;;;;;;16.00;16.00;;;;;;;;5023597;28;48777;-61
2022/04/15 04:47:52;;;;;;;;;14.50;13.25;;;;;;;;5018775;28;45579;-61
2022/04/15 04:50:18;;;;;;;;;14.75;13.50;;;;;;;;5017107;28;45590;-62
2022/04/15 04:52:46;;;;;;;;;13.50;12.50;;;;;;;;5017217;28;45811;-61
2022/04/15 04:55:12;;;;;;;;;17.50;14.50;;;;;;;;5030216;28;46195;-61
2022/04/15 04:57:38;;;;;;;;;11.00;11.00;;;;;;;;5028835;28;45368;-60
2022/04/15 05:00:04;;;;;;;;;18.75;17.75;;;;;;;;5028486;28;45404;-61
2022/04/15 05:02:29;;;;;;;;;13.50;11.00;;;;;;;;5030666;28;45490;-61
2022/04/15 05:04:54;;;;;;;;;14.25;14.25;;;;;;;;5031489;28;45654;-61
2022/04/15 05:07:20;;;;;;;;;15.25;13.50;;;;;;;;5030142;28;45440;-61
2022/04/15 05:09:45;;;;;;;;;15.00;12.50;;;;;;;;5029145;28;45553;-60
2022/04/15 05:12:10;;;;;;;;;13.75;12.25;;;;;;;;5028575;28;45521;-61
2022/04/15 05:14:36;;;;;;;;;15.25;15.25;;;;;;;;5028261;28;46952;-61
2022/04/15 05:17:01;;;;;;;;;16.25;16.00;;;;;;;;5031366;28;45363;-61
2022/04/15 05:19:26;;;;;;;;;20.00;15.75;;;;;;;;5018416;28;45751;-61
2022/04/15 05:21:53;;;;;;;;;14.25;14.25;;;;;;;;5031688;28;45482;-60
2022/04/15 05:24:18;;;;;;;;;14.75;14.00;;;;;;;;5032922;28;45782;-61
2022/04/15 05:26:43;;;;;;;;;15.00;13.75;;;;;;;;5032967;28;45570;-61
2022/04/15 05:29:09;;;;;;;;;14.75;13.75;;;;;;;;5033240;28;45439;-61
2022/04/15 05:31:34;;;;;;;;;14.25;13.50;;;;;;;;5030953;28;45679;-61
2022/04/15 05:34:00;;;;;;;;;11.25;11.25;;;;;;;;5030349;28;45693;-62
2022/04/15 05:36:26;;;;;;;;;17.00;15.75;;;;;;;;5021531;28;45682;-61
2022/04/15 05:38:51;;;;;;;;;13.75;13.75;;;;;;;;5014824;28;45694;-61
2022/04/15 05:41:16;;;;;;;;;11.00;11.00;;;;;;;;5015930;28;45481;-62
2022/04/15 05:43:43;;;;;;;;;12.00;12.00;;;;;;;;5018678;28;45688;-62
2022/04/15 05:46:08;;;;;;;;;13.00;13.00;;;;;;;;5029674;28;45400;-62
2022/04/15 05:48:33;;;;;;;;;14.75;14.50;;;;;;;;5025822;28;45543;-62
2022/04/15 05:50:58;;;;;;;;;12.25;12.25;;;;;;;;5029173;28;45492;-61
2022/04/15 05:53:24;;;;;;;;;14.25;13.25;;;;;;;;5016586;28;50724;-62
2022/04/15 05:55:49;;;;;;;;;9.00;7.50;;;;;;;;5030335;28;45378;-61
2022/04/15 05:58:14;;;;;;;;;14.50;13.50;;;;;;;;5021368;28;45495;-62
2022/04/15 06:00:40;;;;;;;;;14.75;14.25;;;;;;;;5021294;28;47531;-62
2022/04/15 06:03:07;;;;;;;;;15.25;15.25;;;;;;;;5027669;28;47357;-63
2022/04/15 06:05:32;;;;;;;;;11.75;11.75;;;;;;;;5031019;28;46035;-62
2022/04/15 06:07:57;;;;;;;;;14.25;13.25;;;;;;;;5020058;28;45647;-63
2022/04/15 06:10:22;;;;;;;;;16.00;14.75;;;;;;;;5023627;28;45339;-62
2022/04/15 06:13:13;;;;;;;;;14.25;14.25;;;;;;;;5020955;28;45516;-62
2022/04/15 06:15:41;;;;;;;;;13.75;13.50;;;;;;;;5019516;28;45520;-62
2022/04/15 06:18:07;;;;;;;;;15.75;14.75;;;;;;;;5021459;28;45359;-63
2022/04/15 06:20:32;;;;;;;;;19.75;16.25;;;;;;;;5024210;28;45856;-62
2022/04/15 06:22:57;;;;;;;;;19.50;17.50;;;;;;;;5025405;28;45431;-62
2022/04/15 06:25:23;;;;;;;;;17.00;17.00;;;;;;;;5019801;28;45710;-63
2022/04/15 06:27:49;;;;;;;;;18.75;16.00;;;;;;;;5016756;28;45663;-62
2022/04/15 06:30:15;;;;;;;;;18.50;17.25;;;;;;;;5024400;28;45560;-62
2022/04/15 06:32:40;;;;;;;;;17.75;15.00;;;;;;;;5015534;28;46129;-63
2022/04/15 06:35:06;;;;;;;;;16.75;15.75;;;;;;;;5031004;28;45768;-62
2022/04/15 06:37:31;;;;;;;;;17.25;17.00;;;;;;;;5023522;28;45639;-63
2022/04/15 06:39:57;;;;;;;;;19.25;16.25;;;;;;;;5019161;28;45440;-62
2022/04/15 06:42:26;;;;;;;;;15.75;15.75;;;;;;;;5019556;28;46610;-62
2022/04/15 06:44:52;;;;;;;;;19.50;18.25;;;;;;;;5014668;28;45577;-61
2022/04/15 06:47:17;;;;;;;;;18.25;16.00;;;;;;;;5028768;28;45607;-61
2022/04/15 06:49:42;;;;;;;;;16.00;13.25;;;;;;;;5023113;28;45370;-62
2022/04/15 06:52:08;;;;;;;;;20.00;18.00;;;;;;;;5032583;28;47510;-62
2022/04/15 06:54:33;;;;;;;;;14.00;14.00;;;;;;;;5025203;28;46430;-62
2022/04/15 06:56:58;;;;;;;;;18.75;18.75;;;;;;;;5016256;28;45795;-61
2022/04/15 06:59:24;;;;;;;;;19.25;18.00;;;;;;;;5031381;28;45602;-61
2022/04/15 07:01:49;;;;;;;;;19.25;16.75;;;;;;;;5026914;28;46070;-62
2022/04/15 07:04:14;;;;;;;;;21.50;18.25;;;;;;;;5026503;28;45669;-61
2022/04/15 07:06:39;;;;;;;;;17.50;17.50;;;;;;;;5030147;28;45453;-61
2022/04/15 07:09:04;;;;;;;;;16.50;15.75;;;;;;;;5018027;28;45547;-62
2022/04/15 07:11:30;;;;;;;;;16.50;15.75;;;;;;;;5018758;28;45627;-62
2022/04/15 07:13:55;;;;;;;;;18.00;16.75;;;;;;;;5018304;28;45754;-62
2022/04/15 07:16:20;;;;;;;;;16.00;14.25;;;;;;;;5018843;28;45416;-62
2022/04/15 07:18:45;;;;;;;;;15.25;14.50;;;;;;;;5015264;28;45538;-63
2022/04/15 07:21:11;;;;;;;;;17.00;17.00;;;;;;;;5028322;28;47534;-60
2022/04/15 07:23:36;;;;;;;;;20.00;15.75;;;;;;;;5022988;28;45503;-62
2022/04/15 07:26:01;;;;;;;;;16.50;16.00;;;;;;;;5018487;28;45372;-62
2022/04/15 07:28:27;;;;;;;;;17.25;17.00;;;;;;;;5032922;28;45549;-68
2022/04/15 07:30:52;;;;;;;;;14.75;14.75;;;;;;;;5013870;28;46574;-62
2022/04/15 07:33:19;;;;;;;;;12.75;11.00;;;;;;;;5028407;28;45595;-62
2022/04/15 07:35:45;;;;;;;;;18.25;18.25;;;;;;;;5024188;28;45397;-62
2022/04/15 07:38:10;;;;;;;;;19.25;18.25;;;;;;;;5027674;28;45412;-62
2022/04/15 07:40:35;;;;;;;;;15.75;12.75;;;;;;;;5029727;28;48050;-62
2022/04/15 07:43:01;;;;;;;;;16.25;15.75;;;;;;;;5030994;28;45634;-62
2022/04/15 07:45:27;;;;;;;;;18.75;17.75;;;;;;;;5031040;28;45617;-62
2022/04/15 07:47:52;;;;;;;;;15.25;15.25;;;;;;;;5028309;28;45434;-62
2022/04/15 07:50:22;;;;;;;;;18.25;17.75;;;;;;;;5028425;28;46333;-62
2022/04/15 07:52:47;;;;;;;;;23.50;21.50;;;;;;;;5030770;28;45373;-61
2022/04/15 07:55:12;;;;;;;;;19.00;17.00;;;;;;;;5031044;28;45482;-61
2022/04/15 07:57:38;;;;;;;;;20.25;17.25;;;;;;;;5029442;28;45459;-61
2022/04/15 08:00:04;;;;;;;;;19.00;17.50;;;;;;;;5032334;28;45812;-60
2022/04/15 08:02:29;;;;;;;;;15.25;15.25;;;;;;;;5030452;28;45675;-61
2022/04/15 08:04:54;;;;;;;;;19.00;18.00;;;;;;;;5030641;28;45383;-60
2022/04/15 08:07:19;;;;;;;;;15.75;15.75;;;;;;;;5030767;28;45399;-61
2022/04/15 08:09:45;;;;;;;;;14.25;14.00;;;;;;;;5030591;28;46333;-61
2022/04/15 08:12:11;;;;;;;;;15.50;14.75;;;;;;;;5032518;28;45396;-61
2022/04/15 08:14:36;;;;;;;;;15.25;13.00;;;;;;;;5031353;28;45564;-61
2022/04/15 08:17:01;;;;;;;;;16.75;15.00;;;;;;;;5030434;28;45690;-61
2022/04/15 08:19:27;;;;;;;;;10.75;9.75;;;;;;;;5030594;28;46468;-61
2022/04/15 08:21:52;;;;;;;;;13.75;12.00;;;;;;;;5030652;28;45546;-60
2022/04/15 08:24:17;;;;;;;;;11.75;11.75;;;;;;;;5031924;28;45559;-61
2022/04/15 08:26:44;;;;;;;;;13.50;13.50;;;;;;;;5027849;28;45409;-61
2022/04/15 08:29:10;;;;;;;;;15.25;13.00;;;;;;;;5030265;28;45769;-61
2022/04/15 08:31:35;;;;;;;;;14.25;14.00;;;;;;;;5032561;28;46241;-61
2022/04/15 08:34:01;;;;;;;;;17.00;15.75;;;;;;;;5033915;28;45546;-62
2022/04/15 08:36:26;;;;;;;;;13.25;12.00;;;;;;;;5049537;28;45542;-61
2022/04/15 08:38:51;;;;;;;;;17.75;16.50;;;;;;;;5035527;28;46810;-61
2022/04/15 08:41:18;;;;;;;;;15.00;15.00;;;;;;;;5033486;28;45589;-61
2022/04/15 08:43:43;;;;;;;;;15.25;13.25;;;;;;;;5033777;28;45440;-61
2022/04/15 08:46:10;;;;;;;;;15.75;14.50;;;;;;;;5033504;28;45567;-61
2022/04/15 08:48:36;;;;;;;;;22.00;19.25;;;;;;;;5033479;28;47289;-62
2022/04/15 08:51:02;;;;;;;;;15.50;14.75;;;;;;;;5035592;28;45440;-61
2022/04/15 08:53:28;;;;;;;;;17.75;16.75;;;;;;;;5033433;28;45646;-62
2022/04/15 08:55:53;;;;;;;;;13.50;12.75;;;;;;;;5033429;28;45454;-61
2022/04/15 08:58:18;;;;;;;;;16.00;15.75;;;;;;;;5032782;28;46130;-62
2022/04/15 09:00:43;;;;;;;;;12.25;12.25;;;;;;;;5033556;28;45593;-62
2022/04/15 09:03:09;;;;;;;;;15.75;14.00;;;;;;;;5031034;28;45543;-61
2022/04/15 09:05:34;;;;;;;;;14.50;13.25;;;;;;;;5031969;28;45651;-62
2022/04/15 09:08:06;;;;;;;;;14.25;13.00;;;;;;;;5031901;28;45575;-62
2022/04/15 09:10:35;;;;;;;;;12.25;12.25;;;;;;;;5033163;28;45370;-62
2022/04/15 09:13:01;;;;;;;;;9.50;9.00;;;;;;;;5033273;28;45496;-62
2022/04/15 09:15:26;;;;;;;;;8.50;8.00;;;;;;;;5033393;28;45512;-62
2022/04/15 09:17:54;;;;;;;;;8.00;8.00;;;;;;;;5035109;28;46314;-62
2022/04/15 09:20:20;;;;;;;;;7.75;7.75;;;;;;;;5033234;28;45346;-63
2022/04/15 09:22:46;;;;;;;;;8.75;8.75;;;;;;;;5028242;28;45534;-63
2022/04/15 09:25:11;;;;;;;;;9.75;9.75;;;;;;;;5020553;28;45685;-63
2022/04/15 09:27:37;;;;;;;;;7.00;7.00;;;;;;;;5033107;28;46477;-62
2022/04/15 09:30:03;;;;;;;;;4.00;4.00;;;;;;;;5034823;28;45470;-63
2022/04/15 09:32:28;;;;;;;;;5.25;4.00;;;;;;;;5033220;28;45337;-62
2022/04/15 09:34:54;;;;;;;;;1.00;1.00;;;;;;;;5028343;28;45464;-63
2022/04/15 09:37:20;;;;;;;;;0.25;0.25;;;;;;;;5019329;28;47950;-62
2022/04/15 09:40:09;;;;;;;;;1.00;1.00;;;;;;;;5031803;28;45419;-63
2022/04/15 09:42:34;;;;;;;;;1.00;1.00;;;;;;;;5033020;28;45673;-63
2022/04/15 09:45:16;;;;;;;;;3.00;1.00;;;;;;;;5034565;28;45392;-62
2022/04/15 09:47:42;;;;;;;;;0.00;0.00;;;;;;;;5032361;28;46067;-62
2022/04/15 09:50:19;;;;;;;;;1.75;0.25;;;;;;;;5032602;28;45804;-62
2022/04/15 09:52:44;;;;;;;;;1.50;1.50;;;;;;;;5028308;28;45490;-63
2022/04/15 09:55:10;;;;;;;;;0.00;0.00;;;;;;;;5021052;28;45329;-63
2022/04/15 09:57:36;;;;;;;;;1.00;1.00;;;;;;;;5032299;28;45690;-63
2022/04/15 10:00:03;;;;;;;;;0.00;0.00;;;;;;;;5034587;28;45563;-62
2022/04/15 10:02:33;;;;;;;;;0.00;0.00;;;;;;;;5032559;28;45320;-62
2022/04/15 10:04:59;;;;;;;;;1.00;1.00;;;;;;;;5027858;28;45351;-62
2022/04/15 10:07:25;;;;;;;;;0.00;0.00;;;;;;;;5021108;28;45470;-63
2022/04/15 10:09:50;;;;;;;;;1.25;1.25;;;;;;;;5032327;28;45441;-63
2022/04/15 10:12:15;;;;;;;;;0.75;0.75;;;;;;;;5033868;28;45631;-63
2022/04/15 10:14:41;;;;;;;;;0.00;0.00;;;;;;;;5033159;28;45442;-62
2022/04/15 10:17:07;;;;;;;;;8.50;4.00;;;;;;;;5029760;28;45811;-63
2022/04/15 10:19:32;;;;;;;;;1.00;0.00;;;;;;;;5031197;28;45345;-62
2022/04/15 10:21:58;;;;;;;;;1.00;1.00;;;;;;;;5032303;28;45542;-62
2022/04/15 10:24:24;;;;;;;;;1.00;1.00;;;;;;;;5033278;28;45435;-63
2022/04/15 10:26:56;;;;;;;;;0.25;0.25;;;;;;;;5031579;28;46433;-63
2022/04/15 10:29:21;;;;;;;;;0.50;0.50;;;;;;;;5031853;28;45435;-63
2022/04/15 10:31:48;;;;;;;;;12.75;12.75;;;;;;;;5032082;28;45595;-63
2022/04/15 10:34:13;;;;;;;;;1.75;0.75;;;;;;;;5030786;28;45623;-63
2022/04/15 10:36:43;;;;;;;;;1.00;1.00;;;;;;;;5013434;28;48397;-63
2022/04/15 10:39:09;;;;;;;;;0.00;0.00;;;;;;;;5030101;28;45812;-63
2022/04/15 10:41:40;;;;;;;;;0.00;0.00;;;;;;;;5027501;28;45457;-63
2022/04/15 10:44:05;;;;;;;;;0.75;0.75;;;;;;;;5027679;28;45525;-63
2022/04/15 10:46:31;;;;;;;;;0.50;0.50;;;;;;;;5031118;28;46368;-63
2022/04/15 10:49:00;;;;;;;;;0.00;0.00;;;;;;;;5031972;28;45532;-63
2022/04/15 10:51:27;;;;;;;;;0.00;0.00;;;;;;;;5032067;28;45523;-63
2022/04/15 10:53:52;;;;;;;;;1.25;1.00;;;;;;;;5032059;28;45625;-63
2022/04/15 10:56:19;;;;;;;;;1.00;1.00;;;;;;;;5027072;28;47356;-62
2022/04/15 11:01:49;;;;;;;;;1.00;1.00;;;;;;;;5031670;28;45599;-62
2022/04/15 11:04:21;;;;;;;;;0.75;0.75;;;;;;;;5028958;28;45574;-62
2022/04/15 11:06:46;;;;;;;;;1.00;1.00;;;;;;;;5031456;28;46132;-62
2022/04/15 11:09:17;;;;;;;;;1.00;1.00;;;;;;;;5033382;28;45365;-62
2022/04/15 11:11:45;;;;;;;;;4.00;3.00;;;;;;;;5032566;28;45496;-62
2022/04/15 11:14:14;;;;;;;;;2.50;1.50;;;;;;;;5026717;28;47174;-62
2022/04/15 11:16:47;;;;;;;;;1.00;1.00;;;;;;;;5021883;28;46851;-63
2022/04/15 11:19:16;;;;;;;;;1.00;1.00;;;;;;;;5031427;28;45598;-63
2022/04/15 11:21:41;;;;;;;;;1.25;1.25;;;;;;;;5015795;28;45520;-63
2022/04/15 11:24:07;;;;;;;;;3.25;1.75;;;;;;;;5033434;28;45475;-63
2022/04/15 11:26:34;;;;;;;;;1.75;1.75;;;;;;;;5031003;28;46499;-62
2022/04/15 11:29:00;;;;;;;;;1.00;1.00;;;;;;;;5031056;28;45641;-63
2022/04/15 11:31:29;;;;;;;;;2.00;2.00;;;;;;;;5029986;28;45543;-62
2022/04/15 11:33:55;;;;;;;;;1.00;1.00;;;;;;;;5031413;28;45415;-62
2022/04/15 11:36:21;;;;;;;;;2.75;2.25;;;;;;;;5028761;28;46561;-63
2022/04/15 11:38:48;;;;;;;;;1.00;1.00;;;;;;;;5032318;28;45508;-63
2022/04/15 11:41:17;;;;;;;;;1.00;1.00;;;;;;;;5031197;28;45665;-62
2022/04/15 11:43:47;;;;;;;;;2.00;1.00;;;;;;;;5025144;28;45587;-62
2022/04/15 11:46:12;;;;;;;;;3.00;1.75;;;;;;;;5017977;28;45768;-62
2022/04/15 11:48:38;;;;;;;;;2.25;2.25;;;;;;;;5030941;28;45494;-63
2022/04/15 11:51:03;;;;;;;;;2.00;2.00;;;;;;;;5033256;28;45447;-63
2022/04/15 11:53:28;;;;;;;;;0.25;0.25;;;;;;;;5030963;28;45558;-62
2022/04/15 11:55:58;;;;;;;;;1.75;1.75;;;;;;;;5026405;28;47717;-62
2022/04/15 11:58:24;;;;;;;;;6.00;3.25;;;;;;;;5019594;28;45406;-62
2022/04/15 12:00:53;;;;;;;;;1.00;1.00;;;;;;;;5030668;28;45575;-62
2022/04/15 12:03:18;;;;;;;;;2.00;2.00;;;;;;;;5031823;28;45505;-63
2022/04/15 12:05:44;;;;;;;;;2.00;1.50;;;;;;;;5031816;28;45700;-61
2022/04/15 12:08:09;;;;;;;;;1.25;0.25;;;;;;;;5025800;28;45479;-61
2022/04/15 12:10:37;;;;;;;;;1.00;1.00;;;;;;;;5022543;28;45360;-62
2022/04/15 12:13:02;;;;;;;;;2.50;2.00;;;;;;;;5030872;28;45512;-62
2022/04/15 12:15:31;;;;;;;;;3.00;3.00;;;;;;;;5030664;28;46651;-62
2022/04/15 12:17:57;;;;;;;;;4.25;2.00;;;;;;;;5028347;28;45636;-62
2022/04/15 12:20:22;;;;;;;;;2.00;2.00;;;;;;;;5027598;28;45461;-62
2022/04/15 12:22:48;;;;;;;;;2.00;2.00;;;;;;;;5029318;28;45456;-62
2022/04/15 12:25:17;;;;;;;;;1.50;1.50;;;;;;;;5030369;28;46714;-62
2022/04/15 12:27:44;;;;;;;;;2.00;2.00;;;;;;;;5015375;28;45364;-61
2022/04/15 12:30:10;;;;;;;;;3.00;3.00;;;;;;;;5028761;28;45500;-64
2022/04/15 12:32:36;;;;;;;;;2.00;2.00;;;;;;;;5030464;28;45403;-62
2022/04/15 12:35:01;;;;;;;;;2.00;2.00;;;;;;;;5030628;28;46430;-62
2022/04/15 12:37:47;;;;;;;;;2.75;2.75;;;;;;;;5030502;28;45651;-62
2022/04/15 12:40:12;;;;;;;;;1.50;1.50;;;;;;;;5030634;28;45412;-62
2022/04/15 12:42:38;;;;;;;;;1.00;1.00;;;;;;;;5030364;28;45539;-62
2022/04/15 12:45:21;;;;;;;;;3.00;2.00;;;;;;;;5027292;28;48607;-62
2022/04/15 12:47:58;;;;;;;;;2.00;2.00;;;;;;;;5047130;28;45462;-62
2022/04/15 12:50:31;;;;;;;;;4.00;2.00;;;;;;;;5030258;28;45634;-62
2022/04/15 12:52:56;;;;;;;;;2.00;2.00;;;;;;;;5030345;28;45665;-62
2022/04/15 12:55:24;;;;;;;;;3.50;2.00;;;;;;;;5030048;28;46369;-63
2022/04/15 12:57:49;;;;;;;;;4.00;2.25;;;;;;;;5030317;28;45506;-63
2022/04/15 13:00:14;;;;;;;;;2.25;2.00;;;;;;;;5032079;28;45391;-63
2022/04/15 13:02:40;;;;;;;;;2.00;2.00;;;;;;;;5029268;28;45388;-62
2022/04/15 13:05:06;;;;;;;;;4.00;2.00;;;;;;;;5030118;28;45777;-62
2022/04/15 13:07:32;;;;;;;;;2.50;2.50;;;;;;;;5030111;28;45456;-62
2022/04/15 13:09:57;;;;;;;;;1.00;1.00;;;;;;;;5030208;28;45706;-62
2022/04/15 13:12:23;;;;;;;;;2.00;2.00;;;;;;;;5031137;28;45324;-63
2022/04/15 13:14:48;;;;;;;;;2.00;2.00;;;;;;;;5034598;28;45688;-63
2022/04/15 13:17:14;;;;;;;;;2.00;2.00;;;;;;;;5033246;28;45366;-62
2022/04/15 13:19:40;;;;;;;;;4.25;3.25;;;;;;;;5028882;28;45457;-62
2022/04/15 13:22:06;;;;;;;;;2.75;2.00;;;;;;;;5019431;28;45346;-63
2022/04/15 13:24:31;;;;;;;;;3.25;2.75;;;;;;;;5032983;28;45629;-62
2022/04/15 13:26:57;;;;;;;;;3.50;3.50;;;;;;;;5035238;28;45390;-62
2022/04/15 13:29:22;;;;;;;;;5.50;4.25;;;;;;;;5028290;28;45728;-63
2022/04/15 13:31:47;;;;;;;;;4.75;3.00;;;;;;;;5040310;28;45560;-63
2022/04/15 13:34:12;;;;;;;;;5.50;3.75;;;;;;;;5032079;28;46548;-63
2022/04/15 13:36:38;;;;;;;;;5.75;4.25;;;;;;;;5033038;28;45559;-63
2022/04/15 13:39:03;;;;;;;;;3.50;3.50;;;;;;;;5035320;28;45393;-62
2022/04/15 13:41:28;;;;;;;;;4.00;3.00;;;;;;;;5016980;28;45815;-63
2022/04/15 13:43:53;;;;;;;;;5.00;5.00;;;;;;;;5028759;28;46042;-63
2022/04/15 13:46:19;;;;;;;;;4.25;4.25;;;;;;;;5029072;28;45530;-63
2022/04/15 13:48:45;;;;;;;;;5.00;5.00;;;;;;;;5042705;28;45688;-63
2022/04/15 13:51:10;;;;;;;;;5.00;2.50;;;;;;;;5027749;28;45382;-63
2022/04/15 13:56:34;;;;;;;;;5.25;5.25;;;;;;;;5026266;28;45487;-64
2022/04/15 13:59:00;;;;;;;;;5.25;5.25;;;;;;;;5036550;28;45385;-62
2022/04/15 14:01:27;;;;;;;;;4.25;4.25;;;;;;;;5040842;28;45491;-63
2022/04/15 14:03:53;;;;;;;;;5.25;5.00;;;;;;;;5025073;28;45874;-63
2022/04/15 14:06:18;;;;;;;;;3.75;3.75;;;;;;;;5041653;28;45524;-63
2022/04/15 14:08:43;;;;;;;;;7.00;5.25;;;;;;;;5022856;28;45441;-62
2022/04/15 14:11:09;;;;;;;;;7.50;7.25;;;;;;;;5034539;28;45466;-62
2022/04/15 14:13:36;;;;;;;;;6.25;6.25;;;;;;;;5035361;28;45656;-62
2022/04/15 14:16:03;;;;;;;;;6.00;6.00;;;;;;;;5032721;28;45308;-62
2022/04/15 14:18:28;;;;;;;;;8.25;8.25;;;;;;;;5034386;28;46129;-64
2022/04/15 14:20:54;;;;;;;;;6.50;5.75;;;;;;;;5043442;28;45311;-63
2022/04/15 14:23:19;;;;;;;;;5.50;5.50;;;;;;;;5032800;28;46353;-63
2022/04/15 14:25:45;;;;;;;;;6.00;6.00;;;;;;;;5036674;28;45564;-63
2022/04/15 14:28:10;;;;;;;;;10.00;7.00;;;;;;;;5028282;28;45509;-62